Time;durP1;ratioP1;P1;durP2;ratioP2;P2;SDS_P1;SDS_P2;PMS_P1;PMS_P2;Temp;Humidity;BMP_temperature;BMP_pressure;BME280_temperature;BME280_humidity;BME280_pressure;Samples;Min_cycle;Max_cycle;Signal;HPM_P1;HPM_P2
2022/07/05 00:00:19;;;;;;;;;;;;;;;17.45;63.01;96799.81;5094140;28;20405;-72
2022/07/05 00:02:45;;;;;;;;;;;;;;;17.42;62.94;96781.72;5094228;28;20044;-73
2022/07/05 00:05:11;;;;;;;;;;;;;;;17.38;62.55;96783.28;5093890;28;19968;-72
2022/07/05 00:07:37;;;;;;;;;;;;;;;17.37;62.80;96787.00;5094113;28;19951;-72
2022/07/05 00:10:03;;;;;;;;;;;;;;;17.35;62.30;96779.31;5093898;28;20005;-72
2022/07/05 00:12:32;;;;;;;;;;;;;;;17.34;63.06;96784.84;5094229;28;20404;-72
2022/07/05 00:15:01;;;;;;;;;;;;;;;17.30;63.10;96779.25;5094053;28;19988;-72
2022/07/05 00:17:27;;;;;;;;;;;;;;;17.28;63.48;96783.19;5093884;28;19985;-73
2022/07/05 00:19:53;;;;;;;;;;;;;;;17.23;63.63;96782.09;5083332;28;19957;-72
2022/07/05 00:22:18;;;;;;;;;;;;;;;17.18;63.99;96783.94;5093983;28;19957;-72
2022/07/05 00:24:44;;;;;;;;;;;;;;;17.13;64.16;96776.72;5093801;28;19956;-72
2022/07/05 00:27:10;;;;;;;;;;;;;;;17.11;64.48;96778.81;5093965;28;20441;-72
2022/07/05 00:29:36;;;;;;;;;;;;;;;17.08;64.55;96776.69;5093573;28;19966;-72
2022/07/05 00:32:12;;;;;;;;;;;;;;;17.05;64.67;96766.59;5083196;28;19956;-72
2022/07/05 00:34:38;;;;;;;;;;;;;;;17.01;64.44;96770.78;5093304;28;19969;-72
2022/07/05 00:37:04;;;;;;;;;;;;;;;16.98;64.68;96766.78;5092458;28;19955;-72
2022/07/05 00:39:30;;;;;;;;;;;;;;;16.94;64.77;96762.22;5093784;28;20010;-72
2022/07/05 00:41:55;;;;;;;;;;;;;;;16.90;64.84;96769.06;5093540;28;19958;-72
2022/07/05 00:44:29;;;;;;;;;;;;;;;16.88;65.32;96768.53;5094153;28;19963;-73
2022/07/05 00:46:55;;;;;;;;;;;;;;;16.82;65.09;96765.84;5093661;28;20301;-72
2022/07/05 00:49:21;;;;;;;;;;;;;;;16.80;64.88;96761.81;5093377;28;20015;-72
2022/07/05 00:51:47;;;;;;;;;;;;;;;16.77;64.96;96763.09;5093493;28;20409;-73
2022/07/05 00:54:13;;;;;;;;;;;;;;;16.73;64.37;96759.34;5093455;28;19964;-72
2022/07/05 00:56:39;;;;;;;;;;;;;;;16.71;64.98;96769.38;5093543;28;20399;-72
2022/07/05 00:59:04;;;;;;;;;;;;;;;16.69;65.00;96762.75;5093392;28;20431;-73
2022/07/05 01:01:30;;;;;;;;;;;;;;;16.66;65.68;96765.91;5093388;28;19960;-73
2022/07/05 01:03:57;;;;;;;;;;;;;;;16.63;65.06;96769.81;5092375;28;20046;-72
2022/07/05 01:06:23;;;;;;;;;;;;;;;16.60;65.51;96771.13;5093057;28;19970;-72
2022/07/05 01:08:49;;;;;;;;;;;;;;;16.55;65.64;96768.44;5093652;28;20004;-73
2022/07/05 01:11:15;;;;;;;;;;;;;;;16.52;65.02;96771.56;5093245;28;19966;-72
2022/07/05 01:13:41;;;;;;;;;;;;;;;16.49;65.33;96776.56;5093402;28;20015;-72
2022/07/05 01:16:08;;;;;;;;;;;;;;;16.44;65.61;96777.28;5093498;28;19981;-72
2022/07/05 01:18:34;;;;;;;;;;;;;;;16.38;64.45;96768.50;5093157;28;20418;-72
2022/07/05 01:21:01;;;;;;;;;;;;;;;16.34;64.76;96780.63;5093515;28;19966;-72
2022/07/05 01:23:27;;;;;;;;;;;;;;;16.33;65.08;96771.06;5093099;28;19960;-72
2022/07/05 01:25:54;;;;;;;;;;;;;;;16.31;64.95;96767.88;5093532;28;19958;-73
2022/07/05 01:28:20;;;;;;;;;;;;;;;16.31;64.86;96772.38;5093609;28;20439;-73
2022/07/05 01:30:46;;;;;;;;;;;;;;;16.30;64.81;96768.94;5093526;28;19986;-72
2022/07/05 01:33:12;;;;;;;;;;;;;;;16.30;64.63;96768.16;5091952;28;20405;-73
2022/07/05 01:35:38;;;;;;;;;;;;;;;16.28;64.87;96773.69;5093075;28;19951;-72
2022/07/05 01:38:04;;;;;;;;;;;;;;;16.27;65.62;96765.97;5093389;28;20033;-72
2022/07/05 01:40:31;;;;;;;;;;;;;;;16.24;65.26;96768.06;5093040;28;20434;-72
2022/07/05 01:42:57;;;;;;;;;;;;;;;16.22;64.57;96772.00;5093068;28;19957;-71
2022/07/05 01:48:08;;;;;;;;;;;;;;;16.15;65.10;96772.19;5096628;28;19960;-71
2022/07/05 01:50:38;;;;;;;;;;;;;;;16.14;64.99;96777.72;5096533;28;19959;-72
2022/07/05 01:53:04;;;;;;;;;;;;;;;16.11;64.94;96776.38;5096613;28;19965;-72
2022/07/05 01:55:30;;;;;;;;;;;;;;;16.08;64.45;96768.91;5096947;28;19955;-72
2022/07/05 01:57:57;;;;;;;;;;;;;;;16.06;64.43;96770.19;5095630;28;20436;-72
2022/07/05 02:00:22;;;;;;;;;;;;;;;16.03;64.81;96774.94;5096753;28;19958;-72
2022/07/05 02:02:48;;;;;;;;;;;;;;;16.01;64.71;96778.88;5096635;28;20022;-72
2022/07/05 02:05:14;;;;;;;;;;;;;;;15.98;64.80;96779.34;5096687;28;20009;-72
2022/07/05 02:07:47;;;;;;;;;;;;;;;15.94;65.12;96772.97;5096352;28;20010;-72
2022/07/05 02:10:13;;;;;;;;;;;;;;;15.93;64.82;96776.66;5095522;28;19968;-72
2022/07/05 02:12:39;;;;;;;;;;;;;;;15.90;65.10;96783.22;5096729;28;19955;-72
2022/07/05 02:15:05;;;;;;;;;;;;;;;15.86;64.73;96776.81;5096199;28;19976;-72
2022/07/05 02:17:31;;;;;;;;;;;;;;;15.83;64.96;96774.66;5095998;28;19963;-72
2022/07/05 02:19:57;;;;;;;;;;;;;;;15.80;64.85;96773.31;5095601;28;20006;-72
2022/07/05 02:22:23;;;;;;;;;;;;;;;15.78;65.28;96771.94;5096003;28;20430;-73
2022/07/05 02:24:49;;;;;;;;;;;;;;;15.76;65.19;96781.97;5096009;28;19958;-73
2022/07/05 02:27:15;;;;;;;;;;;;;;;15.72;65.60;96775.56;5096892;28;19950;-72
2022/07/05 02:29:41;;;;;;;;;;;;;;;15.67;65.55;96778.91;5095206;28;19955;-72
2022/07/05 02:32:07;;;;;;;;;;;;;;;15.63;65.62;96777.78;5095853;28;19956;-71
2022/07/05 02:34:34;;;;;;;;;;;;;;;15.59;65.85;96779.31;5095936;28;19966;-71
2022/07/05 02:37:00;;;;;;;;;;;;;;;15.54;66.15;96776.56;5095798;28;19957;-72
2022/07/05 02:39:26;;;;;;;;;;;;;;;15.51;66.39;96782.34;5095716;28;20087;-72
2022/07/05 02:41:51;;;;;;;;;;;;;;;15.46;66.79;96785.72;5095466;28;19991;-73
2022/07/05 02:44:17;;;;;;;;;;;;;;;15.38;66.30;96775.56;5094502;28;20013;-72
2022/07/05 02:46:43;;;;;;;;;;;;;;;15.32;66.56;96787.88;5095646;28;19957;-72
2022/07/05 02:49:09;;;;;;;;;;;;;;;15.29;66.34;96788.38;5095784;28;19989;-72
2022/07/05 02:51:35;;;;;;;;;;;;;;;15.27;66.38;96787.78;5095383;28;20023;-72
2022/07/05 02:54:01;;;;;;;;;;;;;;;15.23;66.68;96790.09;5095855;28;19958;-73
2022/07/05 02:56:27;;;;;;;;;;;;;;;15.20;66.84;96787.97;5095111;28;20327;-72
2022/07/05 02:58:53;;;;;;;;;;;;;;;15.19;66.74;96788.19;5095262;28;19969;-72
2022/07/05 03:01:19;;;;;;;;;;;;;;;15.13;66.95;96789.94;5096002;28;19962;-72
2022/07/05 03:03:44;;;;;;;;;;;;;;;15.11;66.89;96794.66;5095261;28;19962;-72
2022/07/05 03:06:10;;;;;;;;;;;;;;;15.09;66.78;96786.16;5095391;28;20455;-72
2022/07/05 03:08:36;;;;;;;;;;;;;;;15.08;67.17;96791.72;5095213;28;19966;-72
2022/07/05 03:11:02;;;;;;;;;;;;;;;15.04;67.62;96801.94;5095261;28;19999;-72
2022/07/05 03:13:28;;;;;;;;;;;;;;;14.98;67.15;96792.31;5095209;28;20322;-72
2022/07/05 03:15:54;;;;;;;;;;;;;;;14.91;67.44;96794.28;5094911;28;20037;-72
2022/07/05 03:18:20;;;;;;;;;;;;;;;14.82;67.37;96794.69;5095109;28;20055;-72
2022/07/05 03:20:46;;;;;;;;;;;;;;;14.79;67.49;96792.50;5094947;28;19956;-72
2022/07/05 03:23:11;;;;;;;;;;;;;;;14.77;67.56;96788.50;5094757;28;19997;-72
2022/07/05 03:25:37;;;;;;;;;;;;;;;14.77;67.42;96799.06;5094734;28;20371;-72
2022/07/05 03:28:03;;;;;;;;;;;;;;;14.77;67.39;96799.06;5094815;28;19956;-72
2022/07/05 03:30:29;;;;;;;;;;;;;;;14.77;67.24;96802.50;5093165;28;19974;-71
2022/07/05 03:32:55;;;;;;;;;;;;;;;14.77;67.35;96804.34;5094951;28;19963;-71
2022/07/05 03:35:21;;;;;;;;;;;;;;;14.78;67.78;96805.94;5094574;28;19975;-71
2022/07/05 03:37:47;;;;;;;;;;;;;;;14.75;67.78;96809.84;5094641;28;20004;-71
2022/07/05 03:40:12;;;;;;;;;;;;;;;14.73;67.33;96805.84;5094473;28;19965;-71
2022/07/05 03:42:38;;;;;;;;;;;;;;;14.72;67.57;96815.63;5095008;28;19958;-71
2022/07/05 03:45:05;;;;;;;;;;;;;;;14.71;67.80;96823.75;5094533;28;20003;-71
2022/07/05 03:47:30;;;;;;;;;;;;;;;14.70;67.72;96824.78;5094554;28;19959;-71
2022/07/05 03:49:56;;;;;;;;;;;;;;;14.70;67.92;96824.78;5094084;28;19960;-71
2022/07/05 03:52:22;;;;;;;;;;;;;;;14.67;67.94;96828.69;5094258;28;20025;-72
2022/07/05 03:54:48;;;;;;;;;;;;;;;14.65;68.14;96827.34;5094379;28;19963;-71
2022/07/05 03:57:14;;;;;;;;;;;;;;;14.62;68.39;96831.25;5094119;28;20369;-72
2022/07/05 03:59:40;;;;;;;;;;;;;;;14.59;68.52;96824.63;5094135;28;20401;-72
2022/07/05 04:02:06;;;;;;;;;;;;;;;14.60;68.60;96835.97;5094423;28;19959;-72
2022/07/05 04:04:32;;;;;;;;;;;;;;;14.56;68.51;96832.97;5094314;28;19964;-72
2022/07/05 04:06:58;;;;;;;;;;;;;;;14.56;68.43;96832.19;5093928;28;19972;-72
2022/07/05 04:09:24;;;;;;;;;;;;;;;14.53;68.86;96838.72;5093223;28;20034;-72
2022/07/05 04:11:50;;;;;;;;;;;;;;;14.52;69.06;96838.94;5093954;28;20474;-72
2022/07/05 04:14:16;;;;;;;;;;;;;;;14.51;68.66;96845.22;5094216;28;20404;-72
2022/07/05 04:16:41;;;;;;;;;;;;;;;14.51;69.12;96850.50;5094011;28;19986;-72
2022/07/05 04:19:07;;;;;;;;;;;;;;;14.54;69.28;96860.63;5093494;28;19965;-72
2022/07/05 04:21:33;;;;;;;;;;;;;;;14.58;69.28;96853.88;5093662;28;19972;-72
2022/07/05 04:23:59;;;;;;;;;;;;;;;14.63;69.33;96856.59;5093771;28;19965;-72
2022/07/05 04:26:48;;;;;;;;;;;;;;;14.69;69.25;96863.59;5076604;28;19971;-72
2022/07/05 04:29:14;;;;;;;;;;;;;;;14.74;69.14;96853.16;5093989;28;19957;-72
2022/07/05 04:31:42;;;;;;;;;;;;;;;14.83;69.67;96864.13;5093400;28;19976;-72
2022/07/05 04:34:08;;;;;;;;;;;;;;;14.93;68.80;96855.59;5093913;28;19967;-73
2022/07/05 04:36:34;;;;;;;;;;;;;;;15.00;68.68;96859.69;5093750;28;19964;-72
2022/07/05 04:39:00;;;;;;;;;;;;;;;15.07;68.57;96850.84;5093628;28;19949;-72
2022/07/05 04:41:26;;;;;;;;;;;;;;;15.13;68.42;96849.91;5093722;28;19958;-72
2022/07/05 04:43:52;;;;;;;;;;;;;;;15.21;68.08;96850.31;5093944;28;20373;-73
2022/07/05 04:46:18;;;;;;;;;;;;;;;15.32;67.97;96853.13;5094046;28;19958;-72
2022/07/05 04:48:44;;;;;;;;;;;;;;;15.42;68.36;96853.31;5093770;28;19962;-72
2022/07/05 04:51:10;;;;;;;;;;;;;;;15.52;68.07;96850.06;5093374;28;20037;-72
2022/07/05 04:53:36;;;;;;;;;;;;;;;15.65;67.80;96848.94;5093949;28;20038;-72
2022/07/05 04:56:01;;;;;;;;;;;;;;;15.77;67.57;96847.00;5093966;28;20054;-72
2022/07/05 04:58:27;;;;;;;;;;;;;;;15.91;67.87;96853.59;5093495;28;19993;-72
2022/07/05 05:00:53;;;;;;;;;;;;;;;16.06;68.00;96853.00;5093758;28;20443;-72
2022/07/05 05:03:20;;;;;;;;;;;;;;;16.22;67.58;96846.91;5092315;28;20011;-72
2022/07/05 05:05:46;;;;;;;;;;;;;;;16.42;67.76;96853.50;5093432;28;19972;-72
2022/07/05 05:08:12;;;;;;;;;;;;;;;16.63;67.13;96846.63;5093819;28;19955;-72
2022/07/05 05:10:37;;;;;;;;;;;;;;;16.83;66.81;96849.53;5092943;28;19981;-72
2022/07/05 05:13:03;;;;;;;;;;;;;;;17.08;65.91;96832.31;5093516;28;19970;-73
2022/07/05 05:15:29;;;;;;;;;;;;;;;17.33;65.64;96831.78;5093312;28;19979;-73
2022/07/05 05:17:55;;;;;;;;;;;;;;;17.61;64.85;96832.53;5093848;28;19959;-72
2022/07/05 05:20:21;;;;;;;;;;;;;;;17.87;63.71;96815.00;5095620;28;20013;-72
2022/07/05 05:22:47;;;;;;;;;;;;;;;18.15;63.00;96813.03;5097753;28;19987;-72
2022/07/05 05:25:13;;;;;;;;;;;;;;;18.44;62.53;96808.13;5097539;28;19954;-72
2022/07/05 05:27:46;;;;;;;;;;;;;;;18.71;61.17;96791.22;5097290;28;19980;-72
2022/07/05 05:30:13;;;;;;;;;;;;;;;18.97;60.20;96792.91;5096981;28;19953;-73
2022/07/05 05:32:39;;;;;;;;;;;;;;;19.23;60.57;96800.91;5097250;28;19965;-72
2022/07/05 05:35:05;;;;;;;;;;;;;;;19.46;59.96;96792.44;5097014;28;19993;-72
2022/07/05 05:37:31;;;;;;;;;;;;;;;19.72;59.61;96792.47;5097050;28;20331;-73
2022/07/05 05:39:57;;;;;;;;;;;;;;;19.98;59.17;96798.53;5097196;28;20403;-72
2022/07/05 05:42:23;;;;;;;;;;;;;;;20.21;58.37;96785.69;5096787;28;19967;-73
2022/07/05 05:44:49;;;;;;;;;;;;;;;20.45;56.52;96770.69;5097500;28;19970;-73
2022/07/05 05:47:15;;;;;;;;;;;;;;;20.71;56.29;96769.81;5097175;28;19963;-72
2022/07/05 05:50:26;;;;;;;;;;;;;;;20.98;54.83;96754.19;5088072;28;19966;-73
2022/07/05 05:52:51;;;;;;;;;;;;;;;21.24;54.46;96772.66;5096862;28;20337;-73
2022/07/05 05:55:18;;;;;;;;;;;;;;;21.44;53.75;96769.06;5096565;28;20046;-73
2022/07/05 05:58:23;;;;;;;;;;;;;;;21.60;52.44;96769.72;5083816;28;19968;-73
2022/07/05 06:00:51;;;;;;;;;;;;;;;21.79;52.57;96772.50;5096720;28;19968;-73
2022/07/05 06:03:18;;;;;;;;;;;;;;;21.95;51.26;96765.94;5096669;28;19953;-73
2022/07/05 06:05:44;;;;;;;;;;;;;;;22.10;52.32;96779.09;5096474;28;19959;-73
2022/07/05 06:08:11;;;;;;;;;;;;;;;22.33;51.56;96779.44;5096578;28;19956;-73
2022/07/05 06:10:38;;;;;;;;;;;;;;;22.52;49.64;96774.13;5095004;28;19971;-73
2022/07/05 06:13:05;;;;;;;;;;;;;;;22.66;48.17;96776.91;5096098;28;19963;-73
2022/07/05 06:15:31;;;;;;;;;;;;;;;22.82;48.10;96802.31;5096088;28;19986;-73
2022/07/05 06:17:58;;;;;;;;;;;;;;;22.90;49.43;96809.72;5096204;28;19969;-73
2022/07/05 06:20:29;;;;;;;;;;;;;;;23.08;49.16;96805.50;5096803;28;19951;-73
2022/07/05 06:22:55;;;;;;;;;;;;;;;23.22;47.37;96802.88;5096652;28;19964;-73
2022/07/05 06:25:21;;;;;;;;;;;;;;;23.31;50.55;96824.44;5096122;28;19958;-73
2022/07/05 06:27:51;;;;;;;;;;;;;;;23.42;49.65;96827.75;5096114;28;19962;-73
2022/07/05 06:30:19;;;;;;;;;;;;;;;23.54;49.29;96825.41;5096042;28;19953;-73
2022/07/05 06:32:45;;;;;;;;;;;;;;;23.64;48.06;96821.75;5095095;28;19957;-73
2022/07/05 06:35:12;;;;;;;;;;;;;;;23.75;45.65;96800.97;5096039;28;20394;-73
2022/07/05 06:37:59;;;;;;;;;;;;;;;23.85;45.24;96806.97;5078811;28;19976;-73
2022/07/05 06:40:28;;;;;;;;;;;;;;;23.88;44.09;96827.03;5095890;28;20445;-73
2022/07/05 06:42:55;;;;;;;;;;;;;;;23.91;44.12;96826.44;5095856;28;19970;-73
2022/07/05 06:45:21;;;;;;;;;;;;;;;23.86;46.65;96842.59;5095924;28;19964;-73
2022/07/05 06:48:07;;;;;;;;;;;;;;;23.71;45.63;96841.72;5095869;28;20323;-73
2022/07/05 06:50:35;;;;;;;;;;;;;;;23.57;46.04;96851.59;5095734;28;19956;-73
2022/07/05 06:53:02;;;;;;;;;;;;;;;23.52;46.29;96854.38;5095859;28;19952;-73
2022/07/05 06:55:28;;;;;;;;;;;;;;;23.51;45.00;96844.72;5095528;28;19955;-73
2022/07/05 06:58:00;;;;;;;;;;;;;;;23.59;47.36;96862.81;5095373;28;19971;-73
2022/07/05 07:00:26;;;;;;;;;;;;;;;23.68;48.77;96873.66;5095461;28;20328;-73
2022/07/05 07:02:53;;;;;;;;;;;;;;;23.73;46.12;96852.16;5095449;28;19957;-73
2022/07/05 07:05:19;;;;;;;;;;;;;;;23.72;47.42;96855.91;5095322;28;19961;-73
2022/07/05 07:10:29;;;;;;;;;;;;;;;23.90;47.04;96854.31;5095339;28;19958;-73
2022/07/05 07:12:56;;;;;;;;;;;;;;;24.05;47.57;96856.72;5095429;28;19999;-73
2022/07/05 07:15:22;;;;;;;;;;;;;;;24.20;46.83;96852.97;5095467;28;19987;-73
2022/07/05 07:17:48;;;;;;;;;;;;;;;24.20;48.31;96863.69;5095257;28;20003;-72
2022/07/05 07:20:14;;;;;;;;;;;;;;;24.15;46.35;96849.59;5095119;28;20010;-73
2022/07/05 07:22:40;;;;;;;;;;;;;;;24.28;45.66;96846.16;5094962;28;19968;-73
2022/07/05 07:25:08;;;;;;;;;;;;;;;24.22;45.54;96850.00;5095134;28;20046;-73
2022/07/05 07:27:40;;;;;;;;;;;;;;;24.36;47.72;96866.09;5081810;28;20314;-73
2022/07/05 07:30:07;;;;;;;;;;;;;;;24.43;43.58;96848.53;5094887;28;20442;-73
2022/07/05 07:32:32;;;;;;;;;;;;;;;24.38;43.43;96848.66;5095079;28;19981;-73
2022/07/05 07:34:58;;;;;;;;;;;;;;;24.55;43.08;96855.31;5094656;28;19960;-73
2022/07/05 07:37:24;;;;;;;;;;;;;;;24.67;44.66;96861.78;5094716;28;19963;-73
2022/07/05 07:39:50;;;;;;;;;;;;;;;24.78;43.37;96857.00;5095280;28;19955;-73
2022/07/05 07:42:16;;;;;;;;;;;;;;;24.83;44.10;96864.94;5094654;28;20013;-73
2022/07/05 07:44:42;;;;;;;;;;;;;;;24.89;43.44;96855.69;5093431;28;20012;-73
2022/07/05 07:47:07;;;;;;;;;;;;;;;24.99;43.68;96860.06;5094856;28;19963;-73
2022/07/05 07:49:33;;;;;;;;;;;;;;;24.85;41.84;96856.59;5093859;28;20010;-73
2022/07/05 07:51:59;;;;;;;;;;;;;;;24.74;41.93;96860.56;5094698;28;20065;-73
2022/07/05 07:54:25;;;;;;;;;;;;;;;24.76;45.28;96888.69;5094686;28;20012;-73
2022/07/05 07:56:51;;;;;;;;;;;;;;;24.94;44.57;96868.19;5094779;28;19957;-73
2022/07/05 07:59:17;;;;;;;;;;;;;;;25.15;44.22;96871.25;5094321;28;20005;-73
2022/07/05 08:01:43;;;;;;;;;;;;;;;25.33;43.44;96868.78;5094294;28;20026;-73
2022/07/05 08:04:08;;;;;;;;;;;;;;;25.42;40.62;96854.31;5094117;28;20051;-73
2022/07/05 08:06:34;;;;;;;;;;;;;;;25.47;42.30;96869.50;5094396;28;20045;-73
2022/07/05 08:09:00;;;;;;;;;;;;;;;25.59;41.02;96858.22;5094490;28;19954;-73
2022/07/05 08:11:26;;;;;;;;;;;;;;;25.68;41.70;96851.81;5094189;28;19969;-73
2022/07/05 08:13:52;;;;;;;;;;;;;;;25.75;42.63;96864.03;5093874;28;19962;-73
2022/07/05 08:16:18;;;;;;;;;;;;;;;25.73;41.97;96859.75;5094086;28;19994;-73
2022/07/05 08:21:39;;;;;;;;;;;;;;;25.81;41.91;96860.91;5074299;28;19977;-73
2022/07/05 08:24:06;;;;;;;;;;;;;;;25.72;41.37;96858.19;5094152;28;20038;-73
2022/07/05 08:26:35;;;;;;;;;;;;;;;25.62;42.90;96871.03;5094202;28;19956;-73
2022/07/05 08:29:02;;;;;;;;;;;;;;;25.71;41.98;96861.94;5093832;28;19977;-73
2022/07/05 08:31:28;;;;;;;;;;;;;;;25.72;40.85;96860.88;5093698;28;19975;-73
2022/07/05 08:33:54;;;;;;;;;;;;;;;25.55;41.46;96858.03;5093862;28;19964;-73
2022/07/05 08:36:21;;;;;;;;;;;;;;;25.30;40.40;96867.47;5093966;28;19960;-73
2022/07/05 08:38:47;;;;;;;;;;;;;;;25.27;39.46;96860.81;5093630;28;19967;-73
2022/07/05 08:41:16;;;;;;;;;;;;;;;25.32;40.02;96859.91;5092721;28;20407;-73
2022/07/05 08:43:44;;;;;;;;;;;;;;;25.23;36.68;96841.03;5093659;28;19970;-73
2022/07/05 08:46:11;;;;;;;;;;;;;;;25.26;39.54;96855.75;5093656;28;19960;-73
2022/07/05 08:48:43;;;;;;;;;;;;;;;25.45;40.97;96861.78;5093671;28;19956;-73
2022/07/05 08:51:11;;;;;;;;;;;;;;;25.60;40.27;96867.84;5094080;28;19977;-73
2022/07/05 08:53:37;;;;;;;;;;;;;;;25.76;37.57;96852.19;5093569;28;20342;-73
2022/07/05 08:56:03;;;;;;;;;;;;;;;25.88;38.97;96857.78;5097181;28;20435;-73
2022/07/05 08:58:30;;;;;;;;;;;;;;;25.91;37.04;96844.56;5097896;28;19961;-73
2022/07/05 09:00:56;;;;;;;;;;;;;;;25.91;37.66;96852.63;5097818;28;20299;-73
2022/07/05 09:03:25;;;;;;;;;;;;;;;26.00;37.58;96850.00;5097800;28;19965;-73
2022/07/05 09:06:27;;;;;;;;;;;;;;;26.16;37.93;96852.28;5044796;28;19964;-73
2022/07/05 09:08:55;;;;;;;;;;;;;;;26.23;37.89;96847.28;5055156;28;19964;-73
2022/07/05 09:11:23;;;;;;;;;;;;;;;26.29;32.99;96833.38;5055629;28;19973;-73
2022/07/05 09:13:50;;;;;;;;;;;;;;;26.23;35.32;96855.34;5058702;28;19966;-73
2022/07/05 09:16:16;;;;;;;;;;;;;;;26.00;35.89;96838.47;5091650;28;19985;-73
2022/07/05 09:18:42;;;;;;;;;;;;;;;26.05;35.26;96846.38;5097472;28;19979;-73
2022/07/05 09:21:12;;;;;;;;;;;;;;;26.21;37.45;96855.63;5097257;28;20320;-73
2022/07/05 09:23:39;;;;;;;;;;;;;;;26.15;35.04;96851.50;5097379;28;19962;-73
2022/07/05 09:26:05;;;;;;;;;;;;;;;26.11;36.80;96864.75;5097229;28;19959;-73
2022/07/05 09:28:30;;;;;;;;;;;;;;;25.93;36.83;96863.06;5097428;28;20368;-73
2022/07/05 09:30:56;;;;;;;;;;;;;;;25.68;36.24;96864.44;5097231;28;19962;-73
2022/07/05 09:33:22;;;;;;;;;;;;;;;25.63;37.30;96872.63;5097112;28;20397;-73
2022/07/05 09:35:57;;;;;;;;;;;;;;;25.66;37.23;96874.69;5097206;28;20377;-73
2022/07/05 09:38:24;;;;;;;;;;;;;;;25.67;37.33;96870.94;5096089;28;20435;-73
2022/07/05 09:40:51;;;;;;;;;;;;;;;25.56;35.72;96865.00;5097734;28;19957;-73
2022/07/05 09:43:24;;;;;;;;;;;;;;;25.57;35.36;96863.09;5097038;28;19974;-73
2022/07/05 09:45:59;;;;;;;;;;;;;;;25.69;36.98;96858.78;5096383;28;19983;-74
2022/07/05 09:48:26;;;;;;;;;;;;;;;25.71;36.06;96856.56;5096981;28;19969;-73
2022/07/05 09:50:52;;;;;;;;;;;;;;;25.80;35.61;96866.59;5096597;28;19954;-73
2022/07/05 09:53:19;;;;;;;;;;;;;;;25.84;35.72;96864.88;5096640;28;20351;-73
2022/07/05 09:56:03;;;;;;;;;;;;;;;25.79;36.46;96867.69;5097031;28;19963;-73
2022/07/05 09:58:29;;;;;;;;;;;;;;;25.82;37.34;96875.13;5096724;28;19959;-73
2022/07/05 10:00:56;;;;;;;;;;;;;;;25.64;36.36;96869.66;5096835;28;20052;-73
2022/07/05 10:03:21;;;;;;;;;;;;;;;25.53;37.10;96876.34;5096626;28;19966;-73
2022/07/05 10:05:48;;;;;;;;;;;;;;;25.61;37.45;96880.19;5095461;28;19995;-73
2022/07/05 10:08:16;;;;;;;;;;;;;;;25.73;34.77;96859.75;5095528;28;20344;-73
2022/07/05 10:10:43;;;;;;;;;;;;;;;25.85;35.12;96856.53;5096389;28;19956;-73
2022/07/05 10:13:09;;;;;;;;;;;;;;;25.90;34.50;96851.03;5096234;28;19970;-74
2022/07/05 10:15:35;;;;;;;;;;;;;;;26.02;34.17;96853.16;5096400;28;20076;-73
2022/07/05 10:18:03;;;;;;;;;;;;;;;26.23;35.61;96868.78;5096289;28;19965;-73
2022/07/05 10:20:45;;;;;;;;;;;;;;;26.45;34.61;96849.88;5096474;28;19956;-73
2022/07/05 10:23:16;;;;;;;;;;;;;;;26.58;35.12;96866.25;5096253;28;19955;-74
2022/07/05 10:25:43;;;;;;;;;;;;;;;26.64;34.92;96873.88;5096341;28;19955;-73
2022/07/05 10:28:10;;;;;;;;;;;;;;;26.72;35.89;96869.63;5096168;28;20434;-73
2022/07/05 10:30:36;;;;;;;;;;;;;;;26.83;34.14;96865.53;5096144;28;20409;-73
2022/07/05 10:33:03;;;;;;;;;;;;;;;26.75;34.17;96862.81;5095867;28;19968;-73
2022/07/05 10:35:29;;;;;;;;;;;;;;;26.65;34.32;96869.31;5095966;28;19963;-73
2022/07/05 10:37:55;;;;;;;;;;;;;;;26.48;34.65;96862.72;5096041;28;20412;-73
2022/07/05 10:40:21;;;;;;;;;;;;;;;26.29;34.88;96867.53;5095889;28;20326;-73
2022/07/05 10:42:52;;;;;;;;;;;;;;;26.24;35.94;96867.66;5096363;28;19964;-73
2022/07/05 10:45:23;;;;;;;;;;;;;;;26.24;35.63;96862.28;5095525;28;19966;-73
2022/07/05 10:48:07;;;;;;;;;;;;;;;26.25;35.22;96856.59;5095809;28;20437;-73
2022/07/05 10:50:50;;;;;;;;;;;;;;;26.46;33.12;96848.78;5095852;28;19960;-73
2022/07/05 10:53:19;;;;;;;;;;;;;;;26.65;35.21;96862.00;5095702;28;20435;-73
2022/07/05 10:55:54;;;;;;;;;;;;;;;26.84;34.28;96860.97;5095588;28;19959;-73
2022/07/05 10:58:21;;;;;;;;;;;;;;;26.75;31.53;96844.78;5095814;28;19964;-73
2022/07/05 11:00:49;;;;;;;;;;;;;;;26.80;34.29;96847.34;5095818;28;19957;-73
2022/07/05 11:03:36;;;;;;;;;;;;;;;26.90;35.36;96857.03;5095476;28;19962;-73
2022/07/05 11:06:04;;;;;;;;;;;;;;;27.04;32.80;96860.34;5095401;28;19955;-73
2022/07/05 11:08:33;;;;;;;;;;;;;;;27.14;34.75;96864.66;5095375;28;19956;-73
2022/07/05 11:11:14;;;;;;;;;;;;;;;27.25;34.50;96867.84;5095197;28;20354;-73
2022/07/05 11:13:40;;;;;;;;;;;;;;;27.40;34.88;96870.06;5095067;28;20434;-73
2022/07/05 11:16:24;;;;;;;;;;;;;;;27.56;35.16;96875.00;5095156;28;20471;-73
2022/07/05 11:18:52;;;;;;;;;;;;;;;27.54;33.77;96861.84;5094819;28;19961;-73
2022/07/05 11:21:18;;;;;;;;;;;;;;;27.64;32.69;96858.03;5094916;28;19972;-73
2022/07/05 11:23:44;;;;;;;;;;;;;;;27.65;32.70;96856.91;5095141;28;19964;-73
2022/07/05 11:26:30;;;;;;;;;;;;;;;27.65;33.58;96865.00;5095316;28;19960;-73
2022/07/05 11:28:56;;;;;;;;;;;;;;;27.73;33.31;96850.72;5095115;28;19957;-73
2022/07/05 11:31:42;;;;;;;;;;;;;;;27.83;33.78;96861.19;5095310;28;20020;-73
2022/07/05 11:34:14;;;;;;;;;;;;;;;27.93;32.41;96844.69;5081346;28;20390;-73
2022/07/05 11:36:40;;;;;;;;;;;;;;;28.09;32.61;96842.28;5094717;28;19954;-73
2022/07/05 11:39:10;;;;;;;;;;;;;;;28.20;33.49;96847.31;5094892;28;19958;-73
2022/07/05 11:41:37;;;;;;;;;;;;;;;28.19;33.39;96851.13;5094719;28;19970;-73
2022/07/05 11:44:03;;;;;;;;;;;;;;;28.27;33.08;96847.63;5094453;28;19973;-73
2022/07/05 11:46:32;;;;;;;;;;;;;;;28.25;32.05;96842.53;5095002;28;20000;-73
2022/07/05 11:48:59;;;;;;;;;;;;;;;27.96;32.19;96843.25;5094688;28;19953;-73
2022/07/05 11:51:25;;;;;;;;;;;;;;;27.64;32.43;96849.97;5094359;28;20332;-73
2022/07/05 11:53:51;;;;;;;;;;;;;;;27.66;32.75;96842.34;5094674;28;20068;-73
2022/07/05 11:56:17;;;;;;;;;;;;;;;27.81;33.16;96835.66;5094515;28;19987;-73
2022/07/05 11:58:43;;;;;;;;;;;;;;;28.00;33.05;96840.72;5094366;28;20419;-73
2022/07/05 12:01:08;;;;;;;;;;;;;;;28.16;33.29;96843.69;5094595;28;19962;-74
2022/07/05 12:03:35;;;;;;;;;;;;;;;28.29;32.74;96838.09;5094504;28;19959;-73
2022/07/05 12:06:11;;;;;;;;;;;;;;;28.33;32.16;96830.16;5094116;28;19958;-74
2022/07/05 12:08:37;;;;;;;;;;;;;;;28.39;32.80;96841.53;5094632;28;20337;-73
2022/07/05 12:13:48;;;;;;;;;;;;;;;28.61;32.99;96840.53;5083613;28;19982;-73
2022/07/05 12:16:14;;;;;;;;;;;;;;;28.68;32.85;96825.38;5093463;28;19976;-73
2022/07/05 12:18:47;;;;;;;;;;;;;;;28.67;30.35;96823.81;5094167;28;19976;-73
2022/07/05 12:21:14;;;;;;;;;;;;;;;28.72;31.77;96830.94;5094014;28;19973;-73
2022/07/05 12:23:44;;;;;;;;;;;;;;;28.83;32.08;96832.16;5094207;28;19965;-73
2022/07/05 12:26:14;;;;;;;;;;;;;;;28.98;32.09;96833.47;5093933;28;19956;-73
2022/07/05 12:28:41;;;;;;;;;;;;;;;28.99;30.75;96815.38;5093371;28;19983;-73
2022/07/05 12:31:16;;;;;;;;;;;;;;;28.82;31.32;96818.97;5093659;28;19966;-73
2022/07/05 12:34:21;;;;;;;;;;;;;;;28.70;30.81;96831.25;5040041;28;19967;-73
2022/07/05 12:36:47;;;;;;;;;;;;;;;28.81;32.25;96826.28;5094031;28;19969;-73
2022/07/05 12:39:16;;;;;;;;;;;;;;;28.82;30.92;96819.75;5093700;28;20372;-73
2022/07/05 12:41:42;;;;;;;;;;;;;;;28.57;31.63;96823.41;5093548;28;20426;-73
2022/07/05 12:44:08;;;;;;;;;;;;;;;28.41;32.82;96832.03;5093870;28;19957;-73
2022/07/05 12:46:37;;;;;;;;;;;;;;;28.15;30.30;96824.00;5093899;28;20320;-73
2022/07/05 12:49:02;;;;;;;;;;;;;;;27.49;30.88;96830.47;5094024;28;20329;-73
2022/07/05 12:51:33;;;;;;;;;;;;;;;27.29;33.46;96836.50;5093778;28;20047;-73
2022/07/05 12:59:32;;;;;;;;;;;;;;;27.72;33.60;96823.00;5093688;28;19957;-73
2022/07/05 13:01:58;;;;;;;;;;;;;;;27.64;33.25;96831.88;5093431;28;20317;-73
2022/07/05 13:04:24;;;;;;;;;;;;;;;27.66;33.40;96832.34;5093621;28;20041;-73
2022/07/05 13:07:03;;;;;;;;;;;;;;;27.79;33.44;96835.19;5093911;28;20000;-73